sensor_id;sensor_type;location;lat;lon;timestamp;temperature;humidity
14555;DHT22;7364;50.870;4.722;2023-05-27T00:02:05;14.80;81.50
14555;DHT22;7364;50.870;4.722;2023-05-27T00:04:33;14.70;81.80
14555;DHT22;7364;50.870;4.722;2023-05-27T00:07:01;14.70;81.90
14555;DHT22;7364;50.870;4.722;2023-05-27T00:09:28;14.70;82.20
14555;DHT22;7364;50.870;4.722;2023-05-27T00:11:55;14.60;83.40
14555;DHT22;7364;50.870;4.722;2023-05-27T00:14:22;14.60;82.80
14555;DHT22;7364;50.870;4.722;2023-05-27T00:16:50;14.40;83.40
14555;DHT22;7364;50.870;4.722;2023-05-27T00:19:17;14.40;83.90
14555;DHT22;7364;50.870;4.722;2023-05-27T00:21:46;14.40;84.20
14555;DHT22;7364;50.870;4.722;2023-05-27T00:24:13;14.40;84.60
14555;DHT22;7364;50.870;4.722;2023-05-27T00:26:40;14.50;83.80
14555;DHT22;7364;50.870;4.722;2023-05-27T00:29:08;14.50;83.60
14555;DHT22;7364;50.870;4.722;2023-05-27T00:31:36;14.40;84.30
14555;DHT22;7364;50.870;4.722;2023-05-27T00:34:03;14.10;85.30
14555;DHT22;7364;50.870;4.722;2023-05-27T00:36:30;13.90;86.70
14555;DHT22;7364;50.870;4.722;2023-05-27T00:39:00;13.90;87.40
14555;DHT22;7364;50.870;4.722;2023-05-27T00:41:29;13.80;88.00
14555;DHT22;7364;50.870;4.722;2023-05-27T00:43:56;13.80;88.50
14555;DHT22;7364;50.870;4.722;2023-05-27T00:46:24;13.90;88.50
14555;DHT22;7364;50.870;4.722;2023-05-27T00:48:51;14.00;88.30
14555;DHT22;7364;50.870;4.722;2023-05-27T00:51:19;14.00;88.10
14555;DHT22;7364;50.870;4.722;2023-05-27T00:53:46;13.90;88.20
14555;DHT22;7364;50.870;4.722;2023-05-27T00:56:15;13.90;88.80
14555;DHT22;7364;50.870;4.722;2023-05-27T00:58:43;13.90;89.30
14555;DHT22;7364;50.870;4.722;2023-05-27T01:01:11;13.90;89.20
14555;DHT22;7364;50.870;4.722;2023-05-27T01:03:40;13.80;89.40
14555;DHT22;7364;50.870;4.722;2023-05-27T01:06:15;13.80;89.70
14555;DHT22;7364;50.870;4.722;2023-05-27T01:08:54;13.90;89.90
14555;DHT22;7364;50.870;4.722;2023-05-27T01:11:29;14.00;89.70
14555;DHT22;7364;50.870;4.722;2023-05-27T01:14:02;13.90;89.50
14555;DHT22;7364;50.870;4.722;2023-05-27T01:16:32;13.80;90.00
14555;DHT22;7364;50.870;4.722;2023-05-27T01:19:00;13.70;90.40
14555;DHT22;7364;50.870;4.722;2023-05-27T01:21:30;13.60;90.80
14555;DHT22;7364;50.870;4.722;2023-05-27T01:24:04;13.50;91.00
14555;DHT22;7364;50.870;4.722;2023-05-27T01:26:32;13.60;91.10
14555;DHT22;7364;50.870;4.722;2023-05-27T01:28:59;13.60;91.10
14555;DHT22;7364;50.870;4.722;2023-05-27T01:31:31;13.60;91.20
14555;DHT22;7364;50.870;4.722;2023-05-27T01:34:00;13.50;91.40
14555;DHT22;7364;50.870;4.722;2023-05-27T01:36:33;13.30;91.90
14555;DHT22;7364;50.870;4.722;2023-05-27T01:39:05;13.20;92.40
14555;DHT22;7364;50.870;4.722;2023-05-27T01:41:34;13.20;92.80
14555;DHT22;7364;50.870;4.722;2023-05-27T01:44:02;13.30;92.60
14555;DHT22;7364;50.870;4.722;2023-05-27T01:46:30;13.20;92.90
14555;DHT22;7364;50.870;4.722;2023-05-27T01:48:57;13.20;93.10
14555;DHT22;7364;50.870;4.722;2023-05-27T01:51:25;13.10;93.40
14555;DHT22;7364;50.870;4.722;2023-05-27T01:53:52;13.00;93.80
14555;DHT22;7364;50.870;4.722;2023-05-27T01:56:21;13.00;94.10
14555;DHT22;7364;50.870;4.722;2023-05-27T01:58:49;12.90;94.40
14555;DHT22;7364;50.870;4.722;2023-05-27T02:01:16;12.90;94.50
14555;DHT22;7364;50.870;4.722;2023-05-27T02:03:43;12.80;95.30
14555;DHT22;7364;50.870;4.722;2023-05-27T02:06:11;12.80;95.30
14555;DHT22;7364;50.870;4.722;2023-05-27T02:08:38;12.80;95.50
14555;DHT22;7364;50.870;4.722;2023-05-27T02:11:05;12.70;95.60
14555;DHT22;7364;50.870;4.722;2023-05-27T02:13:34;12.80;95.80
14555;DHT22;7364;50.870;4.722;2023-05-27T02:16:02;12.80;95.80
14555;DHT22;7364;50.870;4.722;2023-05-27T02:18:29;12.80;95.80
14555;DHT22;7364;50.870;4.722;2023-05-27T02:20:56;12.80;95.90
14555;DHT22;7364;50.870;4.722;2023-05-27T02:23:24;12.60;96.30
14555;DHT22;7364;50.870;4.722;2023-05-27T02:25:51;12.60;96.90
14555;DHT22;7364;50.870;4.722;2023-05-27T02:28:18;12.50;97.20
14555;DHT22;7364;50.870;4.722;2023-05-27T02:30:47;12.50;97.40
14555;DHT22;7364;50.870;4.722;2023-05-27T02:33:14;12.40;98.00
14555;DHT22;7364;50.870;4.722;2023-05-27T02:35:41;12.30;98.50
14555;DHT22;7364;50.870;4.722;2023-05-27T02:38:09;12.20;99.00
14555;DHT22;7364;50.870;4.722;2023-05-27T02:40:36;12.30;99.20
14555;DHT22;7364;50.870;4.722;2023-05-27T02:43:03;12.40;99.00
14555;DHT22;7364;50.870;4.722;2023-05-27T02:45:31;12.30;99.30
14555;DHT22;7364;50.870;4.722;2023-05-27T02:48:00;12.30;99.60
14555;DHT22;7364;50.870;4.722;2023-05-27T02:50:27;12.20;99.80
14555;DHT22;7364;50.870;4.722;2023-05-27T02:52:54;12.30;99.90
14555;DHT22;7364;50.870;4.722;2023-05-27T02:55:22;12.20;99.90
14555;DHT22;7364;50.870;4.722;2023-05-27T02:57:49;12.10;99.90
14555;DHT22;7364;50.870;4.722;2023-05-27T03:00:16;12.10;99.90
14555;DHT22;7364;50.870;4.722;2023-05-27T03:02:44;12.10;99.90
14555;DHT22;7364;50.870;4.722;2023-05-27T03:05:13;12.10;99.90
14555;DHT22;7364;50.870;4.722;2023-05-27T03:07:40;12.20;99.90
14555;DHT22;7364;50.870;4.722;2023-05-27T03:10:08;12.10;99.90
14555;DHT22;7364;50.870;4.722;2023-05-27T03:12:35;12.00;99.90
14555;DHT22;7364;50.870;4.722;2023-05-27T03:15:03;12.00;99.90
14555;DHT22;7364;50.870;4.722;2023-05-27T03:17:30;12.00;99.90
14555;DHT22;7364;50.870;4.722;2023-05-27T03:19:58;12.10;99.90
14555;DHT22;7364;50.870;4.722;2023-05-27T03:22:26;12.20;99.90
14555;DHT22;7364;50.870;4.722;2023-05-27T03:24:54;12.10;99.90
14555;DHT22;7364;50.870;4.722;2023-05-27T03:27:21;12.30;99.90
14555;DHT22;7364;50.870;4.722;2023-05-27T03:29:48;12.30;99.90
14555;DHT22;7364;50.870;4.722;2023-05-27T03:32:15;12.20;99.90
14555;DHT22;7364;50.870;4.722;2023-05-27T03:34:43;12.20;99.90
14555;DHT22;7364;50.870;4.722;2023-05-27T03:37:10;12.20;99.90
14555;DHT22;7364;50.870;4.722;2023-05-27T03:39:43;12.10;99.90
14555;DHT22;7364;50.870;4.722;2023-05-27T03:42:10;12.00;99.90
14555;DHT22;7364;50.870;4.722;2023-05-27T03:44:38;12.00;99.90
14555;DHT22;7364;50.870;4.722;2023-05-27T03:47:06;11.90;99.90
14555;DHT22;7364;50.870;4.722;2023-05-27T03:49:33;12.00;99.90
14555;DHT22;7364;50.870;4.722;2023-05-27T03:52:00;11.90;99.90
14555;DHT22;7364;50.870;4.722;2023-05-27T03:54:27;11.80;99.90
14555;DHT22;7364;50.870;4.722;2023-05-27T03:56:56;11.80;99.90
14555;DHT22;7364;50.870;4.722;2023-05-27T03:59:23;11.80;99.90
14555;DHT22;7364;50.870;4.722;2023-05-27T04:01:51;11.90;99.90
14555;DHT22;7364;50.870;4.722;2023-05-27T04:04:18;11.80;99.90
14555;DHT22;7364;50.870;4.722;2023-05-27T04:06:45;11.80;99.90
14555;DHT22;7364;50.870;4.722;2023-05-27T04:09:12;11.80;99.90
14555;DHT22;7364;50.870;4.722;2023-05-27T04:11:40;11.70;99.90
14555;DHT22;7364;50.870;4.722;2023-05-27T04:14:09;11.70;99.90
14555;DHT22;7364;50.870;4.722;2023-05-27T04:16:36;11.60;99.90
14555;DHT22;7364;50.870;4.722;2023-05-27T04:19:05;11.70;99.90
14555;DHT22;7364;50.870;4.722;2023-05-27T04:21:33;11.80;99.90
14555;DHT22;7364;50.870;4.722;2023-05-27T04:24:01;12.10;99.90
14555;DHT22;7364;50.870;4.722;2023-05-27T04:26:28;12.10;99.90
14555;DHT22;7364;50.870;4.722;2023-05-27T04:28:56;12.10;99.90
14555;DHT22;7364;50.870;4.722;2023-05-27T04:31:26;12.10;99.90
14555;DHT22;7364;50.870;4.722;2023-05-27T04:33:55;12.30;99.90
14555;DHT22;7364;50.870;4.722;2023-05-27T04:36:22;12.30;99.90
14555;DHT22;7364;50.870;4.722;2023-05-27T04:38:51;12.10;99.90
14555;DHT22;7364;50.870;4.722;2023-05-27T04:41:18;12.10;99.90
14555;DHT22;7364;50.870;4.722;2023-05-27T04:43:47;11.90;99.90
14555;DHT22;7364;50.870;4.722;2023-05-27T04:46:14;11.80;99.90
14555;DHT22;7364;50.870;4.722;2023-05-27T04:48:43;12.00;99.90
14555;DHT22;7364;50.870;4.722;2023-05-27T04:51:12;12.30;99.90
14555;DHT22;7364;50.870;4.722;2023-05-27T04:53:41;12.30;99.90
14555;DHT22;7364;50.870;4.722;2023-05-27T04:56:08;12.30;99.90
14555;DHT22;7364;50.870;4.722;2023-05-27T04:58:36;12.20;99.90
14555;DHT22;7364;50.870;4.722;2023-05-27T05:01:05;12.20;99.90
14555;DHT22;7364;50.870;4.722;2023-05-27T05:03:44;12.30;99.90
14555;DHT22;7364;50.870;4.722;2023-05-27T05:06:19;12.00;99.90
14555;DHT22;7364;50.870;4.722;2023-05-27T05:08:48;12.00;99.90
14555;DHT22;7364;50.870;4.722;2023-05-27T05:11:15;11.90;99.90
14555;DHT22;7364;50.870;4.722;2023-05-27T05:13:42;12.00;99.90
14555;DHT22;7364;50.870;4.722;2023-05-27T05:16:10;12.00;99.90
14555;DHT22;7364;50.870;4.722;2023-05-27T05:18:37;12.00;99.90
14555;DHT22;7364;50.870;4.722;2023-05-27T05:21:06;12.20;99.90
14555;DHT22;7364;50.870;4.722;2023-05-27T05:23:33;12.30;99.90
14555;DHT22;7364;50.870;4.722;2023-05-27T05:26:00;12.10;99.90
14555;DHT22;7364;50.870;4.722;2023-05-27T05:28:32;11.90;99.90
14555;DHT22;7364;50.870;4.722;2023-05-27T05:31:00;11.90;99.90
14555;DHT22;7364;50.870;4.722;2023-05-27T05:33:28;12.00;99.90
14555;DHT22;7364;50.870;4.722;2023-05-27T05:35:55;12.10;99.90
14555;DHT22;7364;50.870;4.722;2023-05-27T05:38:24;12.20;99.90
14555;DHT22;7364;50.870;4.722;2023-05-27T05:40:51;12.20;99.90
14555;DHT22;7364;50.870;4.722;2023-05-27T05:43:20;12.00;99.90
14555;DHT22;7364;50.870;4.722;2023-05-27T05:45:47;12.00;99.90
14555;DHT22;7364;50.870;4.722;2023-05-27T05:48:14;12.20;99.90
14555;DHT22;7364;50.870;4.722;2023-05-27T05:50:41;12.40;99.90
14555;DHT22;7364;50.870;4.722;2023-05-27T05:53:09;12.40;99.90
14555;DHT22;7364;50.870;4.722;2023-05-27T05:55:38;12.50;99.90
14555;DHT22;7364;50.870;4.722;2023-05-27T05:58:05;12.70;99.90
14555;DHT22;7364;50.870;4.722;2023-05-27T06:00:33;12.90;99.90
14555;DHT22;7364;50.870;4.722;2023-05-27T06:03:01;13.00;99.90
14555;DHT22;7364;50.870;4.722;2023-05-27T06:05:29;13.30;99.90
14555;DHT22;7364;50.870;4.722;2023-05-27T06:07:57;13.40;99.90
14555;DHT22;7364;50.870;4.722;2023-05-27T06:10:24;13.30;99.90
14555;DHT22;7364;50.870;4.722;2023-05-27T06:12:52;13.30;99.90
14555;DHT22;7364;50.870;4.722;2023-05-27T06:15:23;13.60;99.90
14555;DHT22;7364;50.870;4.722;2023-05-27T06:17:52;13.90;99.90
14555;DHT22;7364;50.870;4.722;2023-05-27T06:20:20;14.30;99.90
14555;DHT22;7364;50.870;4.722;2023-05-27T06:22:49;14.40;99.90
14555;DHT22;7364;50.870;4.722;2023-05-27T06:25:16;14.70;99.90
14555;DHT22;7364;50.870;4.722;2023-05-27T06:27:46;14.80;99.90
14555;DHT22;7364;50.870;4.722;2023-05-27T06:30:15;14.70;99.70
14555;DHT22;7364;50.870;4.722;2023-05-27T06:32:42;14.50;99.90
14555;DHT22;7364;50.870;4.722;2023-05-27T06:35:09;14.50;99.90
14555;DHT22;7364;50.870;4.722;2023-05-27T06:37:36;14.40;99.90
14555;DHT22;7364;50.870;4.722;2023-05-27T06:40:04;14.80;99.80
14555;DHT22;7364;50.870;4.722;2023-05-27T06:42:32;15.10;99.50
14555;DHT22;7364;50.870;4.722;2023-05-27T06:44:59;15.30;98.70
14555;DHT22;7364;50.870;4.722;2023-05-27T06:47:28;15.50;98.10
14555;DHT22;7364;50.870;4.722;2023-05-27T06:49:55;15.50;97.70
14555;DHT22;7364;50.870;4.722;2023-05-27T06:52:22;15.50;97.70
14555;DHT22;7364;50.870;4.722;2023-05-27T06:54:50;15.60;97.80
14555;DHT22;7364;50.870;4.722;2023-05-27T06:57:17;15.80;97.30
14555;DHT22;7364;50.870;4.722;2023-05-27T06:59:44;15.80;96.90
14555;DHT22;7364;50.870;4.722;2023-05-27T07:02:11;15.90;96.90
14555;DHT22;7364;50.870;4.722;2023-05-27T07:04:42;15.80;96.70
14555;DHT22;7364;50.870;4.722;2023-05-27T07:07:09;15.90;96.70
14555;DHT22;7364;50.870;4.722;2023-05-27T07:09:36;16.00;96.40
14555;DHT22;7364;50.870;4.722;2023-05-27T07:12:04;16.30;96.30
14555;DHT22;7364;50.870;4.722;2023-05-27T07:14:32;16.60;95.60
14555;DHT22;7364;50.870;4.722;2023-05-27T07:16:59;16.60;95.60
14555;DHT22;7364;50.870;4.722;2023-05-27T07:19:27;16.50;95.50
14555;DHT22;7364;50.870;4.722;2023-05-27T07:21:55;16.50;95.50
14555;DHT22;7364;50.870;4.722;2023-05-27T07:24:23;16.70;95.50
14555;DHT22;7364;50.870;4.722;2023-05-27T07:26:51;16.80;95.50
14555;DHT22;7364;50.870;4.722;2023-05-27T07:29:18;16.80;95.20
14555;DHT22;7364;50.870;4.722;2023-05-27T07:31:46;16.80;95.40
14555;DHT22;7364;50.870;4.722;2023-05-27T07:34:13;16.90;95.50
14555;DHT22;7364;50.870;4.722;2023-05-27T07:36:40;17.20;95.20
14555;DHT22;7364;50.870;4.722;2023-05-27T07:39:09;17.50;94.80
14555;DHT22;7364;50.870;4.722;2023-05-27T07:41:37;17.70;94.00
14555;DHT22;7364;50.870;4.722;2023-05-27T07:44:04;17.90;93.30
14555;DHT22;7364;50.870;4.722;2023-05-27T07:46:31;17.90;92.90
14555;DHT22;7364;50.870;4.722;2023-05-27T07:48:59;18.10;93.10
14555;DHT22;7364;50.870;4.722;2023-05-27T07:51:26;18.40;92.90
14555;DHT22;7364;50.870;4.722;2023-05-27T07:53:54;17.90;93.10
14555;DHT22;7364;50.870;4.722;2023-05-27T07:56:23;17.60;93.80
14555;DHT22;7364;50.870;4.722;2023-05-27T07:58:50;17.50;94.00
14555;DHT22;7364;50.870;4.722;2023-05-27T08:01:17;17.70;93.80
14555;DHT22;7364;50.870;4.722;2023-05-27T08:03:44;18.00;93.50
14555;DHT22;7364;50.870;4.722;2023-05-27T08:06:12;18.00;93.30
14555;DHT22;7364;50.870;4.722;2023-05-27T08:08:39;17.40;93.60
14555;DHT22;7364;50.870;4.722;2023-05-27T08:11:06;17.00;94.10
14555;DHT22;7364;50.870;4.722;2023-05-27T08:13:35;16.80;94.80
14555;DHT22;7364;50.870;4.722;2023-05-27T08:16:03;17.00;94.90
14555;DHT22;7364;50.870;4.722;2023-05-27T08:18:30;17.20;94.30
14555;DHT22;7364;50.870;4.722;2023-05-27T08:20:57;17.50;94.20
14555;DHT22;7364;50.870;4.722;2023-05-27T08:23:24;17.90;93.70
14555;DHT22;7364;50.870;4.722;2023-05-27T08:25:52;18.30;93.20
14555;DHT22;7364;50.870;4.722;2023-05-27T08:28:19;18.40;92.50
14555;DHT22;7364;50.870;4.722;2023-05-27T08:30:47;18.30;92.30
14555;DHT22;7364;50.870;4.722;2023-05-27T08:33:17;17.80;92.80
14555;DHT22;7364;50.870;4.722;2023-05-27T08:35:44;17.90;92.90
14555;DHT22;7364;50.870;4.722;2023-05-27T08:38:12;18.30;92.50
14555;DHT22;7364;50.870;4.722;2023-05-27T08:40:39;18.40;91.70
14555;DHT22;7364;50.870;4.722;2023-05-27T08:43:07;18.10;92.30
14555;DHT22;7364;50.870;4.722;2023-05-27T08:45:34;18.30;92.90
14555;DHT22;7364;50.870;4.722;2023-05-27T08:48:03;18.60;92.10
14555;DHT22;7364;50.870;4.722;2023-05-27T08:50:30;19.00;91.20
14555;DHT22;7364;50.870;4.722;2023-05-27T08:52:58;18.80;91.60
14555;DHT22;7364;50.870;4.722;2023-05-27T08:55:27;19.00;91.70
14555;DHT22;7364;50.870;4.722;2023-05-27T08:57:57;19.00;91.80
14555;DHT22;7364;50.870;4.722;2023-05-27T09:00:25;19.00;91.60
14555;DHT22;7364;50.870;4.722;2023-05-27T09:02:52;18.40;92.00
14555;DHT22;7364;50.870;4.722;2023-05-27T09:05:23;18.20;92.80
14555;DHT22;7364;50.870;4.722;2023-05-27T09:07:50;18.10;92.70
14555;DHT22;7364;50.870;4.722;2023-05-27T09:10:18;18.10;92.80
14555;DHT22;7364;50.870;4.722;2023-05-27T09:12:45;18.20;92.70
14555;DHT22;7364;50.870;4.722;2023-05-27T09:15:13;18.10;92.70
14555;DHT22;7364;50.870;4.722;2023-05-27T09:17:41;18.30;92.70
14555;DHT22;7364;50.870;4.722;2023-05-27T09:20:09;18.50;92.50
14555;DHT22;7364;50.870;4.722;2023-05-27T09:22:39;18.80;92.20
14555;DHT22;7364;50.870;4.722;2023-05-27T09:25:08;19.20;91.80
14555;DHT22;7364;50.870;4.722;2023-05-27T09:27:35;19.30;91.10
14555;DHT22;7364;50.870;4.722;2023-05-27T09:30:10;19.30;91.40
14555;DHT22;7364;50.870;4.722;2023-05-27T09:32:37;19.60;91.10
14555;DHT22;7364;50.870;4.722;2023-05-27T09:35:06;19.60;90.90
14555;DHT22;7364;50.870;4.722;2023-05-27T09:37:34;19.70;90.60
14555;DHT22;7364;50.870;4.722;2023-05-27T09:40:10;19.70;90.50
14555;DHT22;7364;50.870;4.722;2023-05-27T09:42:42;19.40;90.70
14555;DHT22;7364;50.870;4.722;2023-05-27T09:45:11;19.20;91.40
14555;DHT22;7364;50.870;4.722;2023-05-27T09:47:40;19.50;91.10
14555;DHT22;7364;50.870;4.722;2023-05-27T09:50:08;19.60;90.70
14555;DHT22;7364;50.870;4.722;2023-05-27T09:52:37;19.50;91.10
14555;DHT22;7364;50.870;4.722;2023-05-27T09:55:10;19.60;90.70
14555;DHT22;7364;50.870;4.722;2023-05-27T09:57:38;19.40;90.80
14555;DHT22;7364;50.870;4.722;2023-05-27T10:00:07;19.20;91.30
14555;DHT22;7364;50.870;4.722;2023-05-27T10:02:39;19.30;91.20
14555;DHT22;7364;50.870;4.722;2023-05-27T10:05:08;19.90;90.90
14555;DHT22;7364;50.870;4.722;2023-05-27T10:07:37;20.20;90.40
14555;DHT22;7364;50.870;4.722;2023-05-27T10:10:06;20.50;90.20
14555;DHT22;7364;50.870;4.722;2023-05-27T10:12:37;20.30;90.00
14555;DHT22;7364;50.870;4.722;2023-05-27T10:15:05;20.30;89.80
14555;DHT22;7364;50.870;4.722;2023-05-27T10:17:46;20.60;88.20
14555;DHT22;7364;50.870;4.722;2023-05-27T10:20:24;20.20;89.80
14555;DHT22;7364;50.870;4.722;2023-05-27T10:22:51;20.50;88.80
14555;DHT22;7364;50.870;4.722;2023-05-27T10:25:19;20.50;88.10
14555;DHT22;7364;50.870;4.722;2023-05-27T10:27:48;20.90;88.40
14555;DHT22;7364;50.870;4.722;2023-05-27T10:30:15;21.70;85.60
14555;DHT22;7364;50.870;4.722;2023-05-27T10:32:44;22.20;84.20
14555;DHT22;7364;50.870;4.722;2023-05-27T10:35:15;22.20;82.60
14555;DHT22;7364;50.870;4.722;2023-05-27T10:37:43;22.40;81.60
14555;DHT22;7364;50.870;4.722;2023-05-27T10:40:11;22.80;81.00
14555;DHT22;7364;50.870;4.722;2023-05-27T10:42:38;23.00;80.40
14555;DHT22;7364;50.870;4.722;2023-05-27T10:45:10;23.60;78.70
14555;DHT22;7364;50.870;4.722;2023-05-27T10:47:44;24.40;76.70
14555;DHT22;7364;50.870;4.722;2023-05-27T10:50:13;24.20;75.20
14555;DHT22;7364;50.870;4.722;2023-05-27T10:52:41;24.10;74.50
14555;DHT22;7364;50.870;4.722;2023-05-27T10:55:09;24.80;71.80
14555;DHT22;7364;50.870;4.722;2023-05-27T10:57:36;25.60;71.10
14555;DHT22;7364;50.870;4.722;2023-05-27T11:00:05;26.50;69.50
14555;DHT22;7364;50.870;4.722;2023-05-27T11:02:38;26.80;68.00
14555;DHT22;7364;50.870;4.722;2023-05-27T11:05:09;26.30;67.60
14555;DHT22;7364;50.870;4.722;2023-05-27T11:07:37;25.90;65.60
14555;DHT22;7364;50.870;4.722;2023-05-27T11:10:07;26.30;66.30
14555;DHT22;7364;50.870;4.722;2023-05-27T11:12:34;26.60;66.60
14555;DHT22;7364;50.870;4.722;2023-05-27T11:15:02;27.10;64.70
14555;DHT22;7364;50.870;4.722;2023-05-27T11:17:29;27.90;62.00
14555;DHT22;7364;50.870;4.722;2023-05-27T11:20:01;28.10;61.90
14555;DHT22;7364;50.870;4.722;2023-05-27T11:22:33;29.00;59.10
14555;DHT22;7364;50.870;4.722;2023-05-27T11:25:03;29.30;58.40
14555;DHT22;7364;50.870;4.722;2023-05-27T11:27:36;30.10;55.90
14555;DHT22;7364;50.870;4.722;2023-05-27T11:30:07;29.30;57.10
14555;DHT22;7364;50.870;4.722;2023-05-27T11:32:37;29.60;55.00
14555;DHT22;7364;50.870;4.722;2023-05-27T11:35:12;29.30;53.20
14555;DHT22;7364;50.870;4.722;2023-05-27T11:37:40;29.70;54.70
14555;DHT22;7364;50.870;4.722;2023-05-27T11:40:11;29.90;54.20
14555;DHT22;7364;50.870;4.722;2023-05-27T11:42:43;30.70;53.70
14555;DHT22;7364;50.870;4.722;2023-05-27T11:45:15;31.70;52.10
14555;DHT22;7364;50.870;4.722;2023-05-27T11:47:43;33.40;48.70
14555;DHT22;7364;50.870;4.722;2023-05-27T11:50:14;34.40;45.50
14555;DHT22;7364;50.870;4.722;2023-05-27T11:52:52;34.70;45.20
14555;DHT22;7364;50.870;4.722;2023-05-27T11:55:20;32.20;45.70
14555;DHT22;7364;50.870;4.722;2023-05-27T11:57:48;33.80;45.80
14555;DHT22;7364;50.870;4.722;2023-05-27T12:00:15;33.90;44.90
14555;DHT22;7364;50.870;4.722;2023-05-27T12:02:43;34.00;43.10
14555;DHT22;7364;50.870;4.722;2023-05-27T12:05:11;34.00;43.70
14555;DHT22;7364;50.870;4.722;2023-05-27T12:07:39;34.20;43.30
14555;DHT22;7364;50.870;4.722;2023-05-27T12:10:07;34.50;43.50
14555;DHT22;7364;50.870;4.722;2023-05-27T12:12:35;35.50;41.40
14555;DHT22;7364;50.870;4.722;2023-05-27T12:15:05;36.00;40.70
14555;DHT22;7364;50.870;4.722;2023-05-27T12:17:32;36.50;40.40
14555;DHT22;7364;50.870;4.722;2023-05-27T12:20:00;37.70;39.70
14555;DHT22;7364;50.870;4.722;2023-05-27T12:22:27;38.40;39.10
14555;DHT22;7364;50.870;4.722;2023-05-27T12:24:56;37.70;38.80
14555;DHT22;7364;50.870;4.722;2023-05-27T12:27:23;35.90;38.60
14555;DHT22;7364;50.870;4.722;2023-05-27T12:29:50;36.30;37.50
14555;DHT22;7364;50.870;4.722;2023-05-27T12:32:18;38.20;36.40
14555;DHT22;7364;50.870;4.722;2023-05-27T12:34:45;39.30;34.70
14555;DHT22;7364;50.870;4.722;2023-05-27T12:37:12;40.00;34.60
14555;DHT22;7364;50.870;4.722;2023-05-27T12:39:39;40.40;33.80
14555;DHT22;7364;50.870;4.722;2023-05-27T12:42:08;40.30;33.70
14555;DHT22;7364;50.870;4.722;2023-05-27T12:44:35;40.20;33.50
14555;DHT22;7364;50.870;4.722;2023-05-27T12:47:02;40.10;33.30
14555;DHT22;7364;50.870;4.722;2023-05-27T12:49:30;40.70;32.60
14555;DHT22;7364;50.870;4.722;2023-05-27T12:51:57;40.70;32.30
14555;DHT22;7364;50.870;4.722;2023-05-27T12:54:25;41.60;32.30
14555;DHT22;7364;50.870;4.722;2023-05-27T12:56:53;42.20;30.60
14555;DHT22;7364;50.870;4.722;2023-05-27T12:59:21;42.80;30.40
14555;DHT22;7364;50.870;4.722;2023-05-27T13:01:49;43.40;29.30
14555;DHT22;7364;50.870;4.722;2023-05-27T13:04:16;44.10;29.10
14555;DHT22;7364;50.870;4.722;2023-05-27T13:06:46;41.80;30.10
14555;DHT22;7364;50.870;4.722;2023-05-27T13:09:13;40.50;31.00
14555;DHT22;7364;50.870;4.722;2023-05-27T13:11:43;41.80;30.00
14555;DHT22;7364;50.870;4.722;2023-05-27T13:14:10;42.50;30.00
14555;DHT22;7364;50.870;4.722;2023-05-27T13:16:39;43.70;29.20
14555;DHT22;7364;50.870;4.722;2023-05-27T13:19:06;44.90;27.60
14555;DHT22;7364;50.870;4.722;2023-05-27T13:21:33;45.30;27.30
14555;DHT22;7364;50.870;4.722;2023-05-27T13:24:01;44.90;26.90
14555;DHT22;7364;50.870;4.722;2023-05-27T13:26:28;44.50;26.60
14555;DHT22;7364;50.870;4.722;2023-05-27T13:28:56;45.30;26.70
14555;DHT22;7364;50.870;4.722;2023-05-27T13:31:23;45.10;26.90
14555;DHT22;7364;50.870;4.722;2023-05-27T13:33:52;45.30;25.90
14555;DHT22;7364;50.870;4.722;2023-05-27T13:36:19;45.10;26.00
14555;DHT22;7364;50.870;4.722;2023-05-27T13:38:46;45.30;25.10
14555;DHT22;7364;50.870;4.722;2023-05-27T13:41:14;45.60;25.00
14555;DHT22;7364;50.870;4.722;2023-05-27T13:43:41;46.30;25.20
14555;DHT22;7364;50.870;4.722;2023-05-27T13:46:08;46.90;25.00
14555;DHT22;7364;50.870;4.722;2023-05-27T13:48:35;47.30;24.40
14555;DHT22;7364;50.870;4.722;2023-05-27T13:51:04;47.40;24.20
14555;DHT22;7364;50.870;4.722;2023-05-27T13:53:32;46.70;25.10
14555;DHT22;7364;50.870;4.722;2023-05-27T13:55:59;44.40;25.80
14555;DHT22;7364;50.870;4.722;2023-05-27T13:58:26;43.70;27.00
14555;DHT22;7364;50.870;4.722;2023-05-27T14:00:55;43.90;26.20
14555;DHT22;7364;50.870;4.722;2023-05-27T14:03:22;45.10;25.50
14555;DHT22;7364;50.870;4.722;2023-05-27T14:05:49;45.60;24.40
14555;DHT22;7364;50.870;4.722;2023-05-27T14:08:18;46.50;24.50
14555;DHT22;7364;50.870;4.722;2023-05-27T14:10:45;47.50;24.80
14555;DHT22;7364;50.870;4.722;2023-05-27T14:13:13;47.00;23.80
14555;DHT22;7364;50.870;4.722;2023-05-27T14:15:41;46.10;24.30
14555;DHT22;7364;50.870;4.722;2023-05-27T14:18:10;46.00;23.90
14555;DHT22;7364;50.870;4.722;2023-05-27T14:20:37;46.70;23.80
14555;DHT22;7364;50.870;4.722;2023-05-27T14:23:04;47.20;23.50
14555;DHT22;7364;50.870;4.722;2023-05-27T14:25:37;47.50;23.20
14555;DHT22;7364;50.870;4.722;2023-05-27T14:28:05;48.60;22.90
14555;DHT22;7364;50.870;4.722;2023-05-27T14:30:32;49.40;22.40
14555;DHT22;7364;50.870;4.722;2023-05-27T14:33:02;49.40;21.90
14555;DHT22;7364;50.870;4.722;2023-05-27T14:35:32;49.70;22.10
14555;DHT22;7364;50.870;4.722;2023-05-27T14:38:00;50.00;21.60
14555;DHT22;7364;50.870;4.722;2023-05-27T14:40:27;50.00;21.20
14555;DHT22;7364;50.870;4.722;2023-05-27T14:42:56;50.00;21.50
14555;DHT22;7364;50.870;4.722;2023-05-27T14:45:23;49.90;21.70
14555;DHT22;7364;50.870;4.722;2023-05-27T14:47:51;50.10;21.60
14555;DHT22;7364;50.870;4.722;2023-05-27T14:50:22;49.80;22.10
14555;DHT22;7364;50.870;4.722;2023-05-27T14:52:49;50.30;21.40
14555;DHT22;7364;50.870;4.722;2023-05-27T14:55:16;46.50;21.50
14555;DHT22;7364;50.870;4.722;2023-05-27T14:57:43;44.20;23.90
14555;DHT22;7364;50.870;4.722;2023-05-27T15:00:13;45.30;24.10
14555;DHT22;7364;50.870;4.722;2023-05-27T15:02:40;46.30;23.90
14555;DHT22;7364;50.870;4.722;2023-05-27T15:05:08;47.10;23.70
14555;DHT22;7364;50.870;4.722;2023-05-27T15:07:36;46.30;23.40
14555;DHT22;7364;50.870;4.722;2023-05-27T15:10:05;44.90;23.90
14555;DHT22;7364;50.870;4.722;2023-05-27T15:12:39;46.10;24.20
14555;DHT22;7364;50.870;4.722;2023-05-27T15:15:09;47.60;22.90
14555;DHT22;7364;50.870;4.722;2023-05-27T15:17:38;48.30;22.30
14555;DHT22;7364;50.870;4.722;2023-05-27T15:20:07;48.30;21.60
14555;DHT22;7364;50.870;4.722;2023-05-27T15:22:34;47.30;22.00
14555;DHT22;7364;50.870;4.722;2023-05-27T15:25:02;45.80;23.10
14555;DHT22;7364;50.870;4.722;2023-05-27T15:27:29;43.60;24.00
14555;DHT22;7364;50.870;4.722;2023-05-27T15:29:56;41.90;25.00
14555;DHT22;7364;50.870;4.722;2023-05-27T15:32:24;39.80;26.20
14555;DHT22;7364;50.870;4.722;2023-05-27T15:34:52;38.10;27.40
14555;DHT22;7364;50.870;4.722;2023-05-27T15:37:19;36.60;27.80
14555;DHT22;7364;50.870;4.722;2023-05-27T15:39:47;36.40;27.80
14555;DHT22;7364;50.870;4.722;2023-05-27T15:42:14;36.20;28.50
14555;DHT22;7364;50.870;4.722;2023-05-27T15:44:41;35.60;29.20
14555;DHT22;7364;50.870;4.722;2023-05-27T15:47:08;35.10;30.20
14555;DHT22;7364;50.870;4.722;2023-05-27T15:49:36;34.10;32.30
14555;DHT22;7364;50.870;4.722;2023-05-27T15:52:04;33.90;32.90